Time;durP1;ratioP1;P1;durP2;ratioP2;P2;SDS_P1;SDS_P2;PMS_P1;PMS_P2;Temp;Humidity;BMP_temperature;BMP_pressure;BME280_temperature;BME280_humidity;BME280_pressure;Samples;Min_cycle;Max_cycle;Signal;HPM_P1;HPM_P2
2022/11/28 00:01:46;;;;;;;10.45;7.18;;;6.40;99.90;;;;;;5049822;28;20064;-58
2022/11/28 00:04:12;;;;;;;10.95;8.00;;;6.40;99.90;;;;;;5048258;28;20068;-59
2022/11/28 00:06:47;;;;;;;11.23;8.35;;;6.50;99.90;;;;;;5048845;28;20506;-58
2022/11/28 00:09:14;;;;;;;9.80;6.93;;;6.50;99.90;;;;;;5069184;28;20398;-59
2022/11/28 00:11:40;;;;;;;10.75;8.43;;;6.50;99.90;;;;;;5069141;28;20041;-60
2022/11/28 00:14:07;;;;;;;10.05;7.72;;;6.50;99.90;;;;;;5068354;28;20573;-59
2022/11/28 00:16:32;;;;;;;9.40;6.88;;;6.50;99.90;;;;;;5063342;28;20342;-57
2022/11/28 00:18:59;;;;;;;8.53;7.27;;;6.60;99.90;;;;;;5066128;28;20040;-58
2022/11/28 00:21:25;;;;;;;9.82;7.82;;;6.60;99.90;;;;;;5067360;28;20572;-58
2022/11/28 00:23:52;;;;;;;11.48;7.82;;;6.60;99.90;;;;;;5065147;28;20076;-59
2022/11/28 00:26:23;;;;;;;11.20;7.15;;;6.60;99.90;;;;;;5058537;28;20076;-58
2022/11/28 00:28:49;;;;;;;9.98;7.35;;;6.60;99.90;;;;;;5056729;28;20044;-57
2022/11/28 00:31:17;;;;;;;14.00;7.33;;;6.60;99.90;;;;;;5053362;28;20039;-59
2022/11/28 00:33:43;;;;;;;9.25;7.55;;;6.60;99.90;;;;;;5050699;28;20048;-57
2022/11/28 00:36:10;;;;;;;9.45;7.05;;;6.70;99.90;;;;;;5052923;28;20382;-59
2022/11/28 00:38:36;;;;;;;8.73;6.88;;;6.60;99.90;;;;;;5054113;28;20087;-60
2022/11/28 00:41:08;;;;;;;8.70;7.80;;;6.70;99.90;;;;;;5053242;28;20449;-59
2022/11/28 00:43:34;;;;;;;10.90;7.35;;;6.70;99.90;;;;;;5052099;28;20356;-57
2022/11/28 00:45:59;;;;;;;10.43;7.20;;;6.70;99.90;;;;;;5062710;28;20485;-59
2022/11/28 00:48:25;;;;;;;12.23;8.40;;;6.70;99.90;;;;;;5072955;28;20489;-60
2022/11/28 00:50:52;;;;;;;8.15;7.28;;;6.70;99.90;;;;;;5071675;28;20044;-59
2022/11/28 00:53:18;;;;;;;7.88;7.07;;;6.70;99.90;;;;;;5071909;28;20028;-59
2022/11/28 00:55:43;;;;;;;8.30;7.43;;;6.70;99.90;;;;;;5072076;28;20075;-58
2022/11/28 00:58:09;;;;;;;7.47;6.30;;;6.70;99.90;;;;;;5072870;28;20083;-59
2022/11/28 01:00:36;;;;;;;8.23;6.93;;;6.70;99.90;;;;;;5070484;28;20040;-59
2022/11/28 01:03:02;;;;;;;8.80;7.50;;;6.70;99.90;;;;;;5071832;28;20278;-59
2022/11/28 01:05:27;;;;;;;9.97;7.17;;;6.70;99.90;;;;;;5072340;28;20041;-59
2022/11/28 01:07:53;;;;;;;12.57;8.10;;;6.70;99.90;;;;;;5071551;28;20036;-60
2022/11/28 01:10:20;;;;;;;8.33;6.77;;;6.70;99.90;;;;;;5073041;28;20047;-59
2022/11/28 01:12:46;;;;;;;8.18;6.68;;;6.70;99.90;;;;;;5069000;28;20097;-60
2022/11/28 01:15:12;;;;;;;8.23;7.07;;;6.70;99.90;;;;;;5070519;28;20498;-59
2022/11/28 01:17:38;;;;;;;;;;;6.70;99.90;;;;;;5072248;28;20508;-61
2022/11/28 01:20:06;;;;;;;12.20;7.63;;;6.70;99.90;;;;;;5072428;28;19947;-60
2022/11/28 01:22:32;;;;;;;9.38;6.57;;;6.80;99.90;;;;;;5070347;28;20040;-60
2022/11/28 01:24:57;;;;;;;12.77;7.80;;;6.80;99.90;;;;;;5070683;28;20040;-60
2022/11/28 01:27:23;;;;;;;11.03;7.57;;;6.80;99.90;;;;;;5068295;28;20048;-59
2022/11/28 01:29:49;;;;;;;11.77;7.33;;;6.80;99.90;;;;;;5065926;28;20044;-60
2022/11/28 01:32:14;;;;;;;8.83;6.97;;;6.80;99.90;;;;;;5069475;28;20295;-60
2022/11/28 01:34:40;;;;;;;11.43;7.40;;;6.80;99.90;;;;;;5070886;28;20409;-60
2022/11/28 01:37:05;;;;;;;9.00;8.10;;;6.80;99.90;;;;;;5071932;28;20516;-61
2022/11/28 01:39:31;;;;;;;12.30;8.00;;;6.80;99.90;;;;;;5071991;28;20167;-61
2022/11/28 01:41:56;;;;;;;8.23;6.73;;;6.80;99.90;;;;;;5071961;28;20216;-61
2022/11/28 01:44:22;;;;;;;10.57;8.23;;;6.80;99.90;;;;;;5068111;28;20036;-61
2022/11/28 01:46:47;;;;;;;11.63;7.27;;;6.80;99.90;;;;;;5071239;28;20040;-61
2022/11/28 01:49:30;;;;;;;12.97;7.80;;;6.80;99.90;;;;;;5072073;28;20040;-59
2022/11/28 01:52:01;;;;;;;9.98;7.35;;;6.80;99.90;;;;;;5071973;28;20048;-58
2022/11/28 01:54:30;;;;;;;8.48;6.97;;;6.90;99.90;;;;;;5068229;28;20048;-60
2022/11/28 01:57:03;;;;;;;14.95;8.70;;;6.80;99.90;;;;;;5071182;28;20143;-59
2022/11/28 01:59:36;;;;;;;11.45;7.57;;;6.90;99.90;;;;;;5071677;28;20498;-58
2022/11/28 02:02:08;;;;;;;12.80;8.32;;;6.90;99.90;;;;;;5071472;28;20393;-58
2022/11/28 02:04:34;;;;;;;9.65;7.70;;;6.90;99.90;;;;;;5070102;28;20044;-58
2022/11/28 02:07:00;;;;;;;13.07;7.55;;;6.90;99.90;;;;;;5071335;28;20516;-55
2022/11/28 02:09:25;;;;;;;10.05;7.82;;;6.90;99.90;;;;;;5063218;28;20080;-58
2022/11/28 02:11:54;;;;;;;8.88;7.88;;;6.90;99.90;;;;;;5052535;28;20037;-58
2022/11/28 02:14:47;;;;;;;11.27;8.85;;;6.90;99.90;;;;;;5050145;28;20049;-59
2022/11/28 02:17:50;;;;;;;8.85;7.80;;;6.90;99.90;;;;;;5051164;28;20037;-56
2022/11/28 02:20:24;;;;;;;10.45;8.75;;;6.90;99.90;;;;;;5051758;28;20428;-58
2022/11/28 02:23:08;;;;;;;12.77;9.10;;;7.00;99.90;;;;;;5051178;28;20089;-60
2022/11/28 02:26:09;;;;;;;10.38;9.32;;;7.00;99.90;;;;;;5069104;28;20051;-59
2022/11/28 02:28:59;;;;;;;9.13;8.23;;;7.00;99.90;;;;;;5070849;28;20076;-59
2022/11/28 02:32:01;;;;;;;10.73;7.88;;;7.00;99.90;;;;;;5070903;28;20132;-60
2022/11/28 02:34:29;;;;;;;11.13;7.57;;;7.00;99.90;;;;;;5068752;28;20186;-58
2022/11/28 02:37:05;;;;;;;10.40;8.05;;;7.10;99.90;;;;;;5055663;28;20036;-58
2022/11/28 02:39:41;;;;;;;8.65;7.72;;;7.10;99.90;;;;;;5063967;28;20443;-60
2022/11/28 02:42:41;;;;;;;8.57;7.65;;;7.20;99.90;;;;;;5062848;28;20075;-58
2022/11/28 02:45:30;;;;;;;10.70;7.47;;;7.10;99.90;;;;;;5048577;28;20084;-58
2022/11/28 02:48:36;;;;;;;9.13;8.13;;;7.20;99.90;;;;;;5009324;28;20055;-57
2022/11/28 02:51:12;;;;;;;10.85;7.78;;;7.20;99.90;;;;;;5020975;28;20049;-60
2022/11/28 02:53:40;;;;;;;10.52;8.68;;;7.20;99.90;;;;;;5049491;28;20090;-59
2022/11/28 02:56:09;;;;;;;10.00;8.13;;;7.30;99.90;;;;;;5050231;28;20091;-59
2022/11/28 02:58:35;;;;;;;8.45;7.47;;;7.30;99.90;;;;;;5050679;28;20037;-60
2022/11/28 03:01:02;;;;;;;10.75;8.13;;;7.30;99.90;;;;;;5060511;28;20046;-59
2022/11/28 03:03:36;;;;;;;8.30;7.45;;;7.30;99.90;;;;;;5067276;28;20051;-61
2022/11/28 03:06:20;;;;;;;10.05;9.00;;;7.40;99.90;;;;;;5070154;28;20075;-61
2022/11/28 03:08:55;;;;;;;12.68;9.13;;;7.40;99.90;;;;;;5070466;28;20459;-59
2022/11/28 03:11:59;;;;;;;11.48;9.45;;;7.40;99.90;;;;;;5068488;28;20036;-60
2022/11/28 03:14:41;;;;;;;10.90;9.50;;;7.40;99.90;;;;;;5068358;28;20158;-60
2022/11/28 03:17:19;;;;;;;13.85;8.85;;;7.40;99.90;;;;;;5069532;28;20425;-61
2022/11/28 03:20:08;;;;;;;12.75;8.57;;;7.40;99.90;;;;;;5068968;28;20044;-59
2022/11/28 03:22:42;;;;;;;12.45;8.43;;;7.40;99.90;;;;;;5055671;28;20514;-59
2022/11/28 03:25:34;;;;;;;9.82;8.65;;;7.40;99.90;;;;;;5068492;28;20087;-60
2022/11/28 03:28:05;;;;;;;11.63;8.73;;;7.50;99.90;;;;;;5070076;28;20040;-58
2022/11/28 03:30:57;;;;;;;12.93;9.70;;;7.50;99.90;;;;;;5069434;28;20040;-60
2022/11/28 03:33:26;;;;;;;12.35;8.73;;;7.50;99.90;;;;;;5067285;28;20137;-59
2022/11/28 03:36:01;;;;;;;12.57;9.93;;;7.50;99.90;;;;;;5061529;28;20128;-60
2022/11/28 03:38:33;;;;;;;15.15;10.93;;;7.50;99.90;;;;;;5049842;28;20557;-61
2022/11/28 03:41:06;;;;;;;16.13;10.82;;;7.50;99.90;;;;;;5049210;28;20044;-61
2022/11/28 03:43:37;;;;;;;17.38;11.70;;;7.50;99.90;;;;;;5049930;28;20187;-61
2022/11/28 03:46:10;;;;;;;17.00;12.38;;;7.50;99.90;;;;;;5049621;28;20045;-59
2022/11/28 03:48:40;;;;;;;16.67;12.27;;;7.50;99.90;;;;;;5049836;28;20047;-61
2022/11/28 03:51:17;;;;;;;15.13;12.82;;;7.50;99.90;;;;;;5049788;28;20045;-61
2022/11/28 03:54:07;;;;;;;19.85;13.60;;;7.50;99.90;;;;;;5052495;28;20041;-61
2022/11/28 03:56:49;;;;;;;17.63;13.13;;;7.40;99.90;;;;;;5089905;28;20036;-60
2022/11/28 03:59:43;;;;;;;19.58;14.43;;;7.40;99.90;;;;;;5052539;28;20098;-60
2022/11/28 04:02:35;;;;;;;23.80;16.85;;;7.40;99.90;;;;;;5050034;28;20043;-59
2022/11/28 04:05:06;;;;;;;25.50;17.55;;;7.40;99.90;;;;;;5060648;28;20051;-58
2022/11/28 04:07:52;;;;;;;21.60;16.17;;;7.40;99.90;;;;;;5065025;28;20552;-59
2022/11/28 04:10:21;;;;;;;22.63;16.35;;;7.40;99.90;;;;;;5049450;28;20514;-59
2022/11/28 04:12:59;;;;;;;22.35;15.80;;;7.40;99.90;;;;;;5049139;28;20537;-61
2022/11/28 04:15:44;;;;;;;19.42;15.90;;;7.40;99.90;;;;;;5056949;28;20444;-56
2022/11/28 04:18:40;;;;;;;22.52;15.05;;;7.40;99.90;;;;;;5049301;28;20036;-58
2022/11/28 04:21:31;;;;;;;19.70;16.60;;;7.50;99.90;;;;;;5035268;28;20052;-58
2022/11/28 04:24:02;;;;;;;24.90;15.82;;;7.50;99.90;;;;;;5048061;28;20052;-59
2022/11/28 04:26:37;;;;;;;21.63;14.88;;;7.50;99.90;;;;;;5050439;28;20045;-59
2022/11/28 04:29:08;;;;;;;19.88;15.23;;;7.60;99.90;;;;;;5049437;28;20076;-60
2022/11/28 04:31:36;;;;;;;18.35;15.10;;;7.60;99.90;;;;;;5049260;28;20123;-57
2022/11/28 04:34:06;;;;;;;19.80;16.20;;;7.60;99.90;;;;;;5048585;28;20052;-57
2022/11/28 04:36:35;;;;;;;20.30;16.83;;;7.70;99.90;;;;;;5050123;28;20132;-57
2022/11/28 04:39:03;;;;;;;19.67;16.50;;;7.70;99.90;;;;;;5049325;28;20037;-59
2022/11/28 04:41:36;;;;;;;21.77;17.02;;;7.70;99.90;;;;;;5048629;28;20110;-58
2022/11/28 04:44:10;;;;;;;23.70;16.63;;;7.70;99.90;;;;;;5048325;28;20082;-60
2022/11/28 04:46:43;;;;;;;21.80;18.50;;;7.70;99.90;;;;;;5052899;28;20062;-60
2022/11/28 04:49:10;;;;;;;19.35;16.77;;;7.80;99.90;;;;;;5062918;28;20039;-59
2022/11/28 04:51:45;;;;;;;20.60;17.50;;;7.80;99.90;;;;;;5067268;28;20078;-59
2022/11/28 04:54:41;;;;;;;24.35;17.33;;;7.80;99.90;;;;;;5048226;28;20087;-59
2022/11/28 04:57:25;;;;;;;21.02;17.88;;;7.80;99.90;;;;;;5053228;28;20037;-58
2022/11/28 04:59:52;;;;;;;29.33;19.63;;;7.80;99.90;;;;;;5049194;28;20037;-58
2022/11/28 05:02:19;;;;;;;18.45;16.30;;;7.80;99.90;;;;;;5050402;28;20167;-60
2022/11/28 05:04:45;;;;;;;21.05;18.38;;;7.80;99.90;;;;;;5051419;28;20053;-58
2022/11/28 05:07:11;;;;;;;19.97;17.47;;;7.90;99.90;;;;;;5054567;28;20057;-58
2022/11/28 05:09:37;;;;;;;21.25;18.30;;;7.90;99.90;;;;;;5072737;28;20046;-60
2022/11/28 05:12:03;;;;;;;22.58;18.33;;;7.90;99.90;;;;;;5072526;28;20493;-61
2022/11/28 05:14:29;;;;;;;20.83;18.60;;;7.90;99.90;;;;;;5070631;28;20116;-61
2022/11/28 05:16:54;;;;;;;21.38;18.10;;;7.90;99.90;;;;;;5071961;28;20501;-61
2022/11/28 05:19:20;;;;;;;22.83;20.03;;;7.90;99.90;;;;;;5086115;28;20040;-59
2022/11/28 05:21:45;;;;;;;20.33;17.43;;;7.90;99.90;;;;;;5092702;28;20036;-60
2022/11/28 05:24:11;;;;;;;22.10;17.33;;;7.90;99.90;;;;;;5091626;28;20058;-60
2022/11/28 05:26:37;;;;;;;19.13;17.23;;;7.90;99.90;;;;;;5091035;28;20421;-61
2022/11/28 05:29:03;;;;;;;20.08;17.45;;;8.00;99.90;;;;;;5082397;28;20135;-61
2022/11/28 05:31:29;;;;;;;18.40;16.50;;;8.00;99.90;;;;;;5070143;28;20557;-61
2022/11/28 05:33:55;;;;;;;20.60;18.50;;;8.00;99.90;;;;;;5071249;28;20178;-59
2022/11/28 05:36:21;;;;;;;18.77;16.65;;;8.00;99.90;;;;;;5071994;28;20086;-60
2022/11/28 05:38:47;;;;;;;22.00;17.20;;;8.00;99.90;;;;;;5070273;28;20033;-59
2022/11/28 05:41:22;;;;;;;18.52;16.58;;;8.00;99.90;;;;;;5072122;28;20037;-61
2022/11/28 05:43:47;;;;;;;19.40;16.23;;;8.00;99.90;;;;;;5070406;28;20055;-60
2022/11/28 05:46:13;;;;;;;19.00;17.00;;;8.00;99.90;;;;;;5071362;28;20044;-60
2022/11/28 05:48:39;;;;;;;19.33;15.47;;;8.00;99.90;;;;;;5060894;28;20048;-60
2022/11/28 05:51:05;;;;;;;17.57;14.43;;;8.00;99.90;;;;;;5052955;28;20827;-60
2022/11/28 05:53:30;;;;;;;19.98;15.60;;;8.00;99.90;;;;;;5050547;28;20556;-62
2022/11/28 05:55:56;;;;;;;22.00;15.73;;;8.00;99.90;;;;;;5050597;28;20049;-61
2022/11/28 05:58:21;;;;;;;17.53;15.70;;;8.00;99.90;;;;;;5051351;28;20410;-61
2022/11/28 06:00:47;;;;;;;22.10;16.20;;;8.00;99.90;;;;;;5059528;28;20480;-60
2022/11/28 06:03:13;;;;;;;22.20;16.13;;;7.90;99.90;;;;;;5070852;28;20368;-60
2022/11/28 06:05:40;;;;;;;20.37;14.50;;;7.90;99.90;;;;;;5070935;28;20044;-60
2022/11/28 06:08:06;;;;;;;19.27;14.70;;;7.90;99.90;;;;;;5071213;28;20727;-61
2022/11/28 06:10:32;;;;;;;16.98;14.60;;;8.00;99.90;;;;;;5069693;28;20079;-61
2022/11/28 06:12:58;;;;;;;19.55;14.93;;;7.90;99.90;;;;;;5070272;28;20037;-61
2022/11/28 06:15:23;;;;;;;17.97;13.50;;;7.90;99.90;;;;;;5070434;28;20542;-61
2022/11/28 06:17:49;;;;;;;15.90;13.20;;;7.90;99.90;;;;;;5071307;28;20033;-58
2022/11/28 06:20:14;;;;;;;17.70;14.80;;;7.90;99.90;;;;;;5071250;28;20119;-60
2022/11/28 06:22:40;;;;;;;16.23;13.23;;;7.90;99.90;;;;;;5056399;28;20045;-60
2022/11/28 06:25:06;;;;;;;16.23;12.93;;;7.90;99.90;;;;;;5050017;28;20041;-60
2022/11/28 06:27:33;;;;;;;15.67;12.63;;;7.90;99.90;;;;;;5051106;28;20052;-58
2022/11/28 06:29:59;;;;;;;14.43;12.98;;;7.90;99.90;;;;;;5051514;28;20068;-59
2022/11/28 06:32:24;;;;;;;17.77;14.60;;;7.90;99.90;;;;;;5064014;28;20036;-60
2022/11/28 06:34:50;;;;;;;16.50;13.00;;;7.90;99.90;;;;;;5058793;28;20048;-59
2022/11/28 06:37:15;;;;;;;15.17;13.40;;;7.90;99.90;;;;;;5059199;28;20036;-59
2022/11/28 06:39:41;;;;;;;16.73;13.70;;;7.90;99.90;;;;;;5056366;28;20029;-62
2022/11/28 06:42:07;;;;;;;18.13;14.93;;;7.90;99.90;;;;;;5059951;28;20039;-61
2022/11/28 06:44:32;;;;;;;19.00;15.40;;;7.90;99.90;;;;;;5059472;28;20279;-58
2022/11/28 06:46:58;;;;;;;18.30;15.40;;;7.90;99.90;;;;;;5060440;28;20033;-59
2022/11/28 06:49:23;;;;;;;20.23;15.37;;;7.90;99.90;;;;;;5057285;28;20048;-60
2022/11/28 06:51:49;;;;;;;20.87;17.67;;;7.90;99.90;;;;;;5061430;28;20456;-60
2022/11/28 06:54:14;;;;;;;22.27;18.20;;;7.90;99.90;;;;;;5059815;28;20036;-60
2022/11/28 06:56:40;;;;;;;20.53;16.27;;;7.90;99.90;;;;;;5059325;28;20094;-60
2022/11/28 06:59:06;;;;;;;22.27;17.27;;;7.90;99.90;;;;;;5058869;28;20482;-60
2022/11/28 07:01:33;;;;;;;20.00;17.73;;;7.90;99.90;;;;;;5060175;28;20039;-59
2022/11/28 07:03:59;;;;;;;21.98;18.13;;;7.90;99.90;;;;;;5056757;28;20284;-58
2022/11/28 07:06:26;;;;;;;21.83;16.95;;;7.90;99.90;;;;;;5057392;28;20033;-60
2022/11/28 07:08:52;;;;;;;23.00;18.90;;;7.90;99.90;;;;;;5058522;28;20068;-57
2022/11/28 07:11:22;;;;;;;;;;;7.90;99.90;;;;;;5059916;28;20044;-59
2022/11/28 07:13:49;;;;;;;29.08;20.25;;;7.90;99.90;;;;;;5057949;28;19917;-57
2022/11/28 07:16:22;;;;;;;24.40;19.58;;;7.90;99.90;;;;;;5059353;28;20039;-60
2022/11/28 07:18:49;;;;;;;24.85;20.75;;;7.90;99.90;;;;;;5059975;28;20397;-59
2022/11/28 07:21:15;;;;;;;;;;;7.90;99.90;;;;;;5059229;28;20043;-59
2022/11/28 07:23:42;;;;;;;23.92;20.27;;;7.90;99.90;;;;;;5059118;28;20445;-59
2022/11/28 07:26:09;;;;;;;24.35;20.05;;;7.90;99.90;;;;;;5053898;28;20127;-60
2022/11/28 07:28:35;;;;;;;28.83;22.23;;;7.90;99.90;;;;;;5058617;28;20530;-59
2022/11/28 07:31:04;;;;;;;29.07;23.17;;;7.90;99.90;;;;;;5054979;28;20036;-60
2022/11/28 07:33:31;;;;;;;26.33;21.40;;;7.90;99.90;;;;;;5066236;28;20390;-60
2022/11/28 07:36:05;;;;;;;24.20;20.88;;;7.90;99.90;;;;;;5050554;28;20037;-59
2022/11/28 07:38:31;;;;;;;27.65;22.23;;;7.80;99.90;;;;;;5049816;28;20040;-60
2022/11/28 07:41:05;;;;;;;26.00;21.23;;;7.90;99.90;;;;;;5063665;28;20044;-60
2022/11/28 07:43:30;;;;;;;27.63;22.20;;;7.90;99.90;;;;;;5065968;28;20040;-61
2022/11/28 07:45:56;;;;;;;25.43;21.33;;;7.90;99.90;;;;;;5072034;28;20497;-59
2022/11/28 07:48:21;;;;;;;28.53;21.23;;;7.90;99.90;;;;;;5060140;28;20075;-60
2022/11/28 07:50:47;;;;;;;26.63;23.30;;;7.90;99.90;;;;;;5062831;28;20040;-61
2022/11/28 07:53:13;;;;;;;29.23;22.57;;;7.90;99.90;;;;;;5064934;28;20040;-61
2022/11/28 07:55:38;;;;;;;30.77;23.80;;;7.90;99.90;;;;;;5058387;28;20071;-61
2022/11/28 07:58:04;;;;;;;31.20;23.03;;;7.90;99.90;;;;;;5067677;28;20117;-60
2022/11/28 08:00:30;;;;;;;29.70;23.13;;;7.90;99.90;;;;;;5063052;28;20094;-60
2022/11/28 08:02:56;;;;;;;28.20;23.15;;;7.90;99.90;;;;;;5058642;28;20062;-61
2022/11/28 08:05:22;;;;;;;29.53;22.67;;;7.90;99.90;;;;;;5054041;28;20037;-62
2022/11/28 08:07:49;;;;;;;29.27;22.80;;;7.90;99.90;;;;;;5063314;28;20170;-61
2022/11/28 08:10:15;;;;;;;32.95;23.52;;;7.90;99.90;;;;;;5054343;28;20036;-61
2022/11/28 08:12:40;;;;;;;31.27;25.07;;;7.90;99.90;;;;;;5069228;28;20043;-62
2022/11/28 08:15:06;;;;;;;31.50;23.20;;;7.90;99.90;;;;;;5054373;28;20051;-60
2022/11/28 08:17:33;;;;;;;35.72;26.13;;;7.90;99.90;;;;;;5052763;28;20033;-61
2022/11/28 08:19:59;;;;;;;38.17;26.02;;;7.90;99.90;;;;;;5056076;28;20049;-61
2022/11/28 08:22:24;;;;;;;421.80;133.57;;;7.90;99.90;;;;;;5061419;28;20401;-60
2022/11/28 08:24:50;;;;;;;160.17;39.67;;;7.80;99.90;;;;;;5057611;28;20301;-59
2022/11/28 08:27:16;;;;;;;36.67;26.07;;;7.90;99.90;;;;;;5065071;28;20052;-57
2022/11/28 08:29:41;;;;;;;29.53;24.37;;;7.90;99.90;;;;;;5066162;28;20036;-60
2022/11/28 08:32:07;;;;;;;40.73;27.70;;;7.90;99.90;;;;;;5057383;28;20553;-58
2022/11/28 08:34:32;;;;;;;42.97;28.00;;;7.90;99.90;;;;;;5066433;28;20076;-57
2022/11/28 08:36:58;;;;;;;32.10;26.67;;;7.90;99.90;;;;;;5061951;28;20037;-55
2022/11/28 08:39:23;;;;;;;29.43;25.17;;;7.90;99.90;;;;;;5064546;28;20530;-57
2022/11/28 08:41:49;;;;;;;33.77;27.47;;;7.90;99.90;;;;;;5064608;28;20033;-58
2022/11/28 08:44:15;;;;;;;31.80;26.67;;;7.90;99.90;;;;;;5070673;28;20087;-56
2022/11/28 08:46:40;;;;;;;35.58;26.90;;;7.90;99.90;;;;;;5067305;28;20616;-57
2022/11/28 08:49:06;;;;;;;30.98;25.58;;;7.90;99.90;;;;;;5061071;28;20046;-57
2022/11/28 08:51:32;;;;;;;30.97;26.60;;;7.90;99.90;;;;;;5068736;28;20075;-55
2022/11/28 08:53:58;;;;;;;43.17;27.75;;;7.90;99.90;;;;;;5063573;28;20337;-58
2022/11/28 08:56:24;;;;;;;29.17;25.75;;;7.90;99.90;;;;;;5057543;28;20044;-56
2022/11/28 08:58:49;;;;;;;31.40;26.37;;;7.90;99.90;;;;;;5063201;28;20114;-53
2022/11/28 09:01:24;;;;;;;37.80;26.57;;;7.90;99.90;;;;;;5067419;28;20865;-57
2022/11/28 09:03:49;;;;;;;34.72;25.13;;;7.90;99.90;;;;;;5070305;28;20519;-57
2022/11/28 09:06:16;;;;;;;30.83;24.63;;;7.90;99.90;;;;;;5060802;28;20056;-57
2022/11/28 09:08:41;;;;;;;;;;;7.90;99.90;;;;;;5075879;28;20036;-57
2022/11/28 09:11:08;;;;;;;31.15;25.20;;;7.90;99.90;;;;;;5068128;28;19983;-56
2022/11/28 09:13:35;;;;;;;31.13;24.48;;;7.90;99.90;;;;;;5068670;28;20078;-57
2022/11/28 09:16:02;;;;;;;31.38;25.58;;;7.90;99.90;;;;;;5071616;28;20124;-54
2022/11/28 09:18:28;;;;;;;31.65;25.52;;;7.90;99.90;;;;;;5050764;28;20048;-56
2022/11/28 09:21:01;;;;;;;32.55;24.38;;;7.90;99.90;;;;;;5056139;28;20751;-58
2022/11/28 09:23:28;;;;;;;34.55;25.50;;;7.90;99.90;;;;;;5047340;28;20154;-58
2022/11/28 09:25:54;;;;;;;;;;;7.90;99.90;;;;;;5051958;28;20068;-58
2022/11/28 09:28:19;;;;;;;27.52;22.25;;;7.90;99.90;;;;;;5067088;28;19923;-57
2022/11/28 09:30:45;;;;;;;25.90;22.13;;;7.90;99.90;;;;;;5063743;28;20028;-55
2022/11/28 09:33:12;;;;;;;27.60;22.00;;;7.90;99.90;;;;;;5065337;28;20127;-57
2022/11/28 09:35:39;;;;;;;28.65;22.80;;;7.90;99.90;;;;;;5066364;28;20049;-56
2022/11/28 09:38:04;;;;;;;25.73;22.63;;;7.90;99.90;;;;;;5052288;28;20040;-57
2022/11/28 09:40:37;;;;;;;28.20;21.55;;;7.90;99.90;;;;;;5054324;28;20044;-57
2022/11/28 09:43:29;;;;;;;27.67;23.35;;;7.90;99.90;;;;;;5058831;28;20036;-57
2022/11/28 09:45:56;;;;;;;26.08;21.80;;;7.90;99.90;;;;;;5039740;28;20068;-58
2022/11/28 09:48:29;;;;;;;23.65;20.85;;;7.90;99.90;;;;;;5047307;28;20509;-58
2022/11/28 09:51:02;;;;;;;25.33;20.80;;;7.90;99.90;;;;;;5054208;28;20048;-58
2022/11/28 09:53:36;;;;;;;24.95;20.90;;;7.90;99.90;;;;;;5063097;28;20063;-57
2022/11/28 09:56:12;;;;;;;29.13;22.52;;;7.90;99.90;;;;;;5050855;28;20100;-56
2022/11/28 09:58:48;;;;;;;23.30;20.05;;;7.90;99.90;;;;;;5052382;28;20036;-56
2022/11/28 10:01:16;;;;;;;25.33;20.15;;;8.00;99.90;;;;;;5051379;28;20066;-57
2022/11/28 10:03:59;;;;;;;22.02;19.35;;;8.00;99.90;;;;;;5060931;28;20033;-58
2022/11/28 10:06:34;;;;;;;24.20;19.80;;;8.00;99.90;;;;;;5055756;28;20040;-57
2022/11/28 10:09:18;;;;;;;22.23;19.70;;;8.00;99.90;;;;;;5059069;28;20584;-58
2022/11/28 10:11:50;;;;;;;24.92;18.75;;;8.00;99.90;;;;;;5051904;28;20043;-56
2022/11/28 10:14:33;;;;;;;21.67;18.05;;;8.00;99.90;;;;;;5056293;28;20041;-59
2022/11/28 10:17:40;;;;;;;22.83;20.35;;;8.00;99.90;;;;;;5050547;28;20033;-56
2022/11/28 10:20:26;;;;;;;21.27;19.05;;;8.00;99.90;;;;;;5055376;28;20036;-57
2022/11/28 10:23:17;;;;;;;21.65;19.27;;;8.00;99.90;;;;;;5058519;28;20029;-58
2022/11/28 10:25:54;;;;;;;21.13;18.13;;;8.00;99.90;;;;;;5053002;28;20382;-58
2022/11/28 10:28:25;;;;;;;;;;;8.00;99.90;;;;;;5052421;28;20271;-57
2022/11/28 10:31:02;;;;;;;27.33;17.75;;;8.00;99.90;;;;;;5049065;28;20306;-58
2022/11/28 10:33:39;;;;;;;19.95;17.45;;;8.00;99.90;;;;;;5049372;28;20044;-57
2022/11/28 10:36:05;;;;;;;20.70;18.17;;;8.00;99.90;;;;;;5050863;28;20318;-57
2022/11/28 10:38:33;;;;;;;19.98;17.83;;;8.00;99.90;;;;;;5062806;28;20033;-58
2022/11/28 10:41:17;;;;;;;20.45;18.25;;;8.00;99.90;;;;;;5052842;28;20036;-56
2022/11/28 10:44:01;;;;;;;20.13;18.13;;;8.10;99.90;;;;;;5050550;28;20040;-58
2022/11/28 10:46:49;;;;;;;20.60;18.23;;;8.10;99.90;;;;;;5047067;28;20033;-58
2022/11/28 10:49:28;;;;;;;18.73;16.77;;;8.10;99.90;;;;;;5060758;28;20043;-58
2022/11/28 10:52:00;;;;;;;18.92;16.92;;;8.10;99.90;;;;;;5053422;28;20033;-58
2022/11/28 10:54:53;;;;;;;22.30;18.10;;;8.10;99.90;;;;;;5052741;28;20071;-59
2022/11/28 10:57:49;;;;;;;20.20;18.00;;;8.10;99.90;;;;;;5051452;28;20110;-56
2022/11/28 11:00:19;;;;;;;19.45;16.85;;;8.10;99.90;;;;;;5047881;28;20044;-56
2022/11/28 11:02:51;;;;;;;19.55;17.00;;;8.10;99.90;;;;;;5064007;28;20082;-58
2022/11/28 11:05:24;;;;;;;19.42;17.33;;;8.10;99.90;;;;;;5050454;28;20046;-56
2022/11/28 11:08:03;;;;;;;19.02;16.38;;;8.10;99.90;;;;;;5050833;28;20045;-58
2022/11/28 11:10:35;;;;;;;18.30;16.35;;;8.10;99.90;;;;;;5054363;28;20133;-58
2022/11/28 11:13:24;;;;;;;20.08;17.00;;;8.10;99.90;;;;;;5057093;28;20044;-58
2022/11/28 11:16:05;;;;;;;19.05;17.05;;;8.10;99.90;;;;;;5050508;28;20097;-58
2022/11/28 11:18:41;;;;;;;18.08;16.38;;;8.10;99.90;;;;;;5053240;28;20259;-58
2022/11/28 11:21:25;;;;;;;23.77;17.25;;;8.10;99.90;;;;;;5056635;28;20503;-56
2022/11/28 11:24:14;;;;;;;18.95;16.73;;;8.10;99.90;;;;;;5053026;28;20083;-57
2022/11/28 11:26:43;;;;;;;19.67;17.48;;;8.20;99.90;;;;;;5047297;28;20402;-57
2022/11/28 11:29:27;;;;;;;19.25;16.40;;;8.20;99.90;;;;;;5049060;28;20451;-58
2022/11/28 11:31:53;;;;;;;19.33;16.95;;;8.20;99.90;;;;;;5052581;28;20481;-57
2022/11/28 11:34:22;;;;;;;21.60;16.45;;;8.20;99.90;;;;;;5057235;28;20051;-57
2022/11/28 11:36:48;;;;;;;19.65;17.25;;;8.20;99.90;;;;;;5052726;28;20059;-58
2022/11/28 11:39:15;;;;;;;19.50;17.45;;;8.20;99.90;;;;;;5053804;28;20034;-58
2022/11/28 11:41:44;;;;;;;21.65;17.10;;;8.20;99.90;;;;;;5048724;28;20029;-58
2022/11/28 11:44:21;;;;;;;19.90;17.00;;;8.10;99.90;;;;;;5049362;28;20037;-57
2022/11/28 11:47:03;;;;;;;20.15;17.98;;;8.20;99.90;;;;;;5054975;28;20040;-58
2022/11/28 11:49:36;;;;;;;19.20;15.95;;;8.10;99.90;;;;;;5033058;28;20086;-58
2022/11/28 11:52:11;;;;;;;18.35;15.70;;;8.20;99.90;;;;;;5058298;28;20047;-58
2022/11/28 11:54:52;;;;;;;17.90;15.35;;;8.20;99.90;;;;;;5047043;28;20049;-58
2022/11/28 11:57:21;;;;;;;17.50;15.50;;;8.20;99.90;;;;;;5056841;28;20464;-57
2022/11/28 11:59:52;;;;;;;15.63;13.60;;;8.20;99.90;;;;;;5046302;28;20037;-56
2022/11/28 12:02:25;;;;;;;15.68;14.05;;;8.20;99.90;;;;;;5056551;28;20509;-58
2022/11/28 12:05:00;;;;;;;15.70;14.10;;;8.20;99.90;;;;;;5045777;28;20044;-58
2022/11/28 12:07:39;;;;;;;18.65;14.20;;;8.20;99.90;;;;;;5050918;28;20040;-57
2022/11/28 12:10:10;;;;;;;17.00;14.40;;;8.20;99.90;;;;;;5046136;28;20084;-56
2022/11/28 12:12:36;;;;;;;15.55;13.95;;;8.20;99.90;;;;;;5048972;28;20137;-58
2022/11/28 12:15:02;;;;;;;15.77;14.07;;;8.20;99.90;;;;;;5055844;28;20039;-59
2022/11/28 12:17:47;;;;;;;15.70;12.93;;;8.20;99.90;;;;;;5049320;28;20512;-58
2022/11/28 12:20:31;;;;;;;15.48;13.88;;;8.20;99.90;;;;;;5051985;28;20043;-58
2022/11/28 12:23:26;;;;;;;15.60;13.73;;;8.30;99.90;;;;;;5048293;28;20390;-57
2022/11/28 12:26:19;;;;;;;15.95;14.05;;;8.20;99.90;;;;;;5047763;28;20033;-57
2022/11/28 12:29:06;;;;;;;13.68;12.27;;;8.20;99.90;;;;;;5062164;28;20567;-58
2022/11/28 12:31:50;;;;;;;16.23;14.53;;;8.20;99.90;;;;;;5051878;28;20044;-56
2022/11/28 12:34:33;;;;;;;15.82;14.23;;;8.30;99.90;;;;;;5058478;28;20050;-56
2022/11/28 12:37:08;;;;;;;16.48;14.07;;;8.20;99.90;;;;;;5061248;28;20037;-58
2022/11/28 12:40:08;;;;;;;15.82;14.18;;;8.20;99.90;;;;;;5060244;28;20516;-57
2022/11/28 12:43:00;;;;;;;13.52;12.23;;;8.20;99.90;;;;;;5064973;28;20033;-57
2022/11/28 12:45:43;;;;;;;16.17;13.52;;;8.30;99.90;;;;;;5068440;28;20551;-56
2022/11/28 12:48:15;;;;;;;14.95;13.32;;;8.20;99.90;;;;;;5067747;28;20044;-58
2022/11/28 12:50:45;;;;;;;15.10;13.50;;;8.30;99.90;;;;;;5068463;28;20068;-58
2022/11/28 12:53:38;;;;;;;13.52;12.05;;;8.20;99.90;;;;;;5067124;28;20123;-58
2022/11/28 12:56:24;;;;;;;12.70;11.48;;;8.20;99.90;;;;;;5064203;28;20036;-58
2022/11/28 12:59:13;;;;;;;14.20;12.70;;;8.30;99.90;;;;;;5067797;28;20076;-58
2022/11/28 13:01:49;;;;;;;13.30;11.90;;;8.30;99.90;;;;;;5066661;28;20579;-58
2022/11/28 13:05:02;;;;;;;13.10;11.80;;;8.20;99.90;;;;;;5067314;28;20044;-58
2022/11/28 13:07:43;;;;;;;13.52;12.23;;;8.30;99.90;;;;;;4986364;28;20042;-58
2022/11/28 13:10:11;;;;;;;17.25;13.80;;;8.30;99.90;;;;;;4985708;28;20475;-59